Time;durP1;ratioP1;P1;durP2;ratioP2;P2;SDS_P1;SDS_P2;PMS_P1;PMS_P2;Temp;Humidity;BMP_temperature;BMP_pressure;BME280_temperature;BME280_humidity;BME280_pressure;Samples;Min_cycle;Max_cycle;Signal;HPM_P1;HPM_P2
2023/05/25 00:02:14;;;;;;;36.00;20.40;;;;;;;-128.00;-1.00;-1.00;105602;1253;1003496;-79
2023/05/25 00:04:40;;;;;;;;;;;;;;;-128.00;-1.00;-1.00;105557;1253;1047392;-76
2023/05/25 00:07:07;;;;;;;29.70;18.80;;;;;;;-128.00;-1.00;-1.00;105523;1253;1004805;-77
2023/05/25 00:09:34;;;;;;;27.90;19.60;;;;;;;-128.00;-1.00;-1.00;105624;1253;1005059;-79
2023/05/25 00:12:00;;;;;;;28.20;20.70;;;;;;;-128.00;-1.00;-1.00;105766;1253;1004523;-79
2023/05/25 00:14:27;;;;;;;32.70;20.00;;;;;;;-128.00;-1.00;-1.00;105717;1253;1004584;-79
2023/05/25 00:16:54;;;;;;;33.60;19.40;;;;;;;-128.00;-1.00;-1.00;105733;1254;1003759;-77
2023/05/25 00:19:21;;;;;;;30.30;20.00;;;;;;;-128.00;-1.00;-1.00;105640;1254;1003480;-77
2023/05/25 00:21:47;;;;;;;31.00;18.60;;;;;;;-128.00;-1.00;-1.00;105765;1254;1004809;-77
2023/05/25 00:24:13;;;;;;;30.20;19.20;;;;;;;-128.00;-1.00;-1.00;105644;1254;1004301;-77
2023/05/25 00:26:40;;;;;;;32.60;20.20;;;;;;;-128.00;-1.00;-1.00;105647;1254;1003826;-77
2023/05/25 00:29:06;;;;;;;30.80;19.60;;;;;;;-128.00;-1.00;-1.00;105718;1254;1003428;-77
2023/05/25 00:31:34;;;;;;;31.70;21.80;;;;;;;-128.00;-1.00;-1.00;105727;1254;1005119;-79
2023/05/25 00:34:00;;;;;;;30.20;20.20;;;;;;;-128.00;-1.00;-1.00;105780;1253;1004218;-77
2023/05/25 00:36:26;;;;;;;27.00;19.00;;;;;;;-128.00;-1.00;-1.00;105724;1253;1004150;-79
2023/05/25 00:38:53;;;;;;;30.10;20.60;;;;;;;-128.00;-1.00;-1.00;105746;1253;1004376;-79
2023/05/25 00:41:21;;;;;;;35.30;20.40;;;;;;;-128.00;-1.00;-1.00;105757;1253;1003928;-78
2023/05/25 00:43:47;;;;;;;30.20;20.70;;;;;;;-128.00;-1.00;-1.00;105625;1253;1003932;-77
2023/05/25 00:46:14;;;;;;;27.70;19.70;;;;;;;-128.00;-1.00;-1.00;105581;1253;1005074;-79
2023/05/25 00:48:41;;;;;;;29.50;19.50;;;;;;;-128.00;-1.00;-1.00;105509;1252;1004219;-77
2023/05/25 00:51:08;;;;;;;32.80;21.80;;;;;;;-128.00;-1.00;-1.00;105492;1253;1004585;-79
2023/05/25 00:53:36;;;;;;;30.40;20.40;;;;;;;-128.00;-1.00;-1.00;105514;1253;1004777;-78
2023/05/25 00:56:19;;;;;;;34.60;20.60;;;;;;;-128.00;-1.00;-1.00;105477;1254;1003613;-79
2023/05/25 00:58:45;;;;;;;41.10;21.70;;;;;;;-128.00;-1.00;-1.00;105752;1252;1058598;-77
2023/05/25 01:01:12;;;;;;;34.20;21.30;;;;;;;-128.00;-1.00;-1.00;105569;1258;1004032;-79
2023/05/25 01:03:40;;;;;;;34.20;21.10;;;;;;;-128.00;-1.00;-1.00;105602;1253;1003384;-79
2023/05/25 01:06:10;;;;;;;29.20;21.20;;;;;;;-128.00;-1.00;-1.00;105714;1253;1004980;-77
2023/05/25 01:08:37;;;;;;;30.40;18.50;;;;;;;-128.00;-1.00;-1.00;105589;1253;1061083;-79
2023/05/25 01:11:03;;;;;;;39.20;21.40;;;;;;;-128.00;-1.00;-1.00;105406;1253;1004135;-79
2023/05/25 01:13:30;;;;;;;40.10;23.00;;;;;;;-128.00;-1.00;-1.00;105341;1258;1004504;-77
2023/05/25 01:15:56;;;;;;;33.10;21.50;;;;;;;-128.00;-1.00;-1.00;105579;1252;1005101;-77
2023/05/25 01:18:23;;;;;;;41.70;23.50;;;;;;;-128.00;-1.00;-1.00;105743;1252;1004426;-79
2023/05/25 01:21:13;;;;;;;38.30;23.60;;;;;;;-128.00;-1.00;-1.00;105727;1252;1004297;-77
2023/05/25 01:24:03;;;;;;;33.80;21.00;;;;;;;-128.00;-1.00;-1.00;105475;1253;1057854;-77
2023/05/25 01:26:33;;;;;;;44.00;24.50;;;;;;;-128.00;-1.00;-1.00;105451;1256;1058997;-79
2023/05/25 01:28:59;;;;;;;36.60;22.20;;;;;;;-128.00;-1.00;-1.00;105539;1256;1045784;-77
2023/05/25 01:31:26;;;;;;;35.40;24.10;;;;;;;-128.00;-1.00;-1.00;105385;1253;1004362;-77
2023/05/25 01:33:52;;;;;;;34.50;22.00;;;;;;;-128.00;-1.00;-1.00;105309;1254;1004622;-77
2023/05/25 01:36:19;;;;;;;36.50;23.60;;;;;;;-128.00;-1.00;-1.00;105547;1254;1003416;-77
2023/05/25 01:38:46;;;;;;;40.00;23.70;;;;;;;-128.00;-1.00;-1.00;105541;1253;1004328;-77
2023/05/25 01:41:12;;;;;;;39.00;22.80;;;;;;;-128.00;-1.00;-1.00;105289;1253;1005048;-77
2023/05/25 01:43:39;;;;;;;35.80;24.00;;;;;;;-128.00;-1.00;-1.00;105530;1252;1003663;-79
2023/05/25 01:46:28;;;;;;;46.00;25.30;;;;;;;-128.00;-1.00;-1.00;105553;1254;1003638;-79
2023/05/25 01:49:18;;;;;;;36.50;23.80;;;;;;;-128.00;-1.00;-1.00;105537;1253;1058738;-77
2023/05/25 01:51:54;;;;;;;38.30;22.70;;;;;;;-128.00;-1.00;-1.00;105481;1253;1059487;-77
2023/05/25 01:54:22;;;;;;;40.80;24.70;;;;;;;-128.00;-1.00;-1.00;105445;1253;1045899;-77
2023/05/25 01:56:48;;;;;;;34.20;23.10;;;;;;;-128.00;-1.00;-1.00;105393;1254;1004024;-77
2023/05/25 01:59:15;;;;;;;38.10;22.90;;;;;;;-128.00;-1.00;-1.00;105482;1253;1004331;-79
2023/05/25 02:01:41;;;;;;;44.90;23.50;;;;;;;-128.00;-1.00;-1.00;105242;1253;1004715;-77
2023/05/25 02:04:08;;;;;;;37.90;23.50;;;;;;;-128.00;-1.00;-1.00;105377;1253;1004481;-79
2023/05/25 02:06:35;;;;;;;41.50;26.00;;;;;;;-128.00;-1.00;-1.00;105460;1253;1004487;-79
2023/05/25 02:09:02;;;;;;;43.20;26.30;;;;;;;-128.00;-1.00;-1.00;105680;1253;1004416;-79
2023/05/25 02:11:28;;;;;;;42.40;26.00;;;;;;;-128.00;-1.00;-1.00;105692;1254;1005588;-77
2023/05/25 02:13:55;;;;;;;38.50;26.10;;;;;;;-128.00;-1.00;-1.00;105728;1253;1004645;-80
2023/05/25 02:16:21;;;;;;;42.80;24.80;;;;;;;-128.00;-1.00;-1.00;105688;1253;1004934;-79
2023/05/25 02:18:49;;;;;;;42.20;25.00;;;;;;;-128.00;-1.00;-1.00;105713;1253;1003972;-80
2023/05/25 02:21:16;;;;;;;38.90;26.40;;;;;;;-128.00;-1.00;-1.00;105741;1253;1004163;-77
2023/05/25 02:23:42;;;;;;;45.80;27.80;;;;;;;-128.00;-1.00;-1.00;105473;1253;1003521;-77
2023/05/25 02:26:08;;;;;;;41.50;27.50;;;;;;;-128.00;-1.00;-1.00;105479;1254;1003800;-77
2023/05/25 02:28:35;;;;;;;41.10;26.60;;;;;;;-128.00;-1.00;-1.00;105459;1254;1004520;-79
2023/05/25 02:31:01;;;;;;;47.70;28.00;;;;;;;-128.00;-1.00;-1.00;105483;1253;1004941;-79
2023/05/25 02:33:27;;;;;;;43.10;26.40;;;;;;;-128.00;-1.00;-1.00;105556;1253;1004557;-77
2023/05/25 02:35:54;;;;;;;40.50;26.20;;;;;;;-128.00;-1.00;-1.00;105530;1252;1004576;-77
2023/05/25 02:38:20;;;;;;;46.00;25.60;;;;;;;-128.00;-1.00;-1.00;105561;1253;1005233;-79
2023/05/25 02:40:47;;;;;;;43.20;27.00;;;;;;;-128.00;-1.00;-1.00;105543;1253;1046631;-77
2023/05/25 02:43:13;;;;;;;47.10;28.70;;;;;;;-128.00;-1.00;-1.00;105546;1252;1004332;-77
2023/05/25 02:45:39;;;;;;;45.10;29.30;;;;;;;-128.00;-1.00;-1.00;105530;1254;1004573;-79
2023/05/25 02:48:06;;;;;;;44.60;29.40;;;;;;;-128.00;-1.00;-1.00;105552;1252;1004994;-79
2023/05/25 02:50:32;;;;;;;48.70;29.50;;;;;;;-128.00;-1.00;-1.00;105442;1253;1004704;-79
2023/05/25 02:52:59;;;;;;;50.90;30.40;;;;;;;-128.00;-1.00;-1.00;105381;1253;1005296;-79
2023/05/25 02:55:25;;;;;;;47.40;28.30;;;;;;;-128.00;-1.00;-1.00;105601;1253;1004043;-78
2023/05/25 02:57:52;;;;;;;43.80;28.30;;;;;;;-128.00;-1.00;-1.00;105625;1256;1003648;-79
2023/05/25 03:00:19;;;;;;;54.00;29.50;;;;;;;-128.00;-1.00;-1.00;105747;1254;1005087;-77
2023/05/25 03:02:47;;;;;;;45.90;29.30;;;;;;;-128.00;-1.00;-1.00;105639;1254;1004120;-79
2023/05/25 03:05:34;;;;;;;49.20;31.20;;;;;;;-128.00;-1.00;-1.00;105683;1253;1046126;-77
2023/05/25 03:08:00;;;;;;;50.70;30.20;;;;;;;-128.00;-1.00;-1.00;105436;1254;1048039;-77
2023/05/25 03:10:27;;;;;;;45.10;27.10;;;;;;;-128.00;-1.00;-1.00;105374;1253;1004193;-77
2023/05/25 03:12:53;;;;;;;48.20;30.20;;;;;;;-128.00;-1.00;-1.00;105460;1253;1004144;-79
2023/05/25 03:15:21;;;;;;;49.50;29.90;;;;;;;-128.00;-1.00;-1.00;105344;1253;1004118;-79
2023/05/25 03:17:48;;;;;;;52.90;29.60;;;;;;;-128.00;-1.00;-1.00;105424;1254;1003967;-77
2023/05/25 03:20:15;;;;;;;46.50;29.40;;;;;;;-128.00;-1.00;-1.00;105453;1254;1003745;-79
2023/05/25 03:22:42;;;;;;;52.90;30.80;;;;;;;-128.00;-1.00;-1.00;105454;1256;1004762;-77
2023/05/25 03:25:11;;;;;;;45.20;28.10;;;;;;;-128.00;-1.00;-1.00;105367;1254;1004371;-77
2023/05/25 03:27:38;;;;;;;50.90;31.80;;;;;;;-128.00;-1.00;-1.00;105430;1254;1059830;-78
2023/05/25 03:30:06;;;;;;;49.60;31.20;;;;;;;-128.00;-1.00;-1.00;105444;1253;1003688;-77
2023/05/25 03:32:32;;;;;;;53.10;31.10;;;;;;;-128.00;-1.00;-1.00;105563;1252;1004582;-77
2023/05/25 03:34:59;;;;;;;44.90;31.60;;;;;;;-128.00;-1.00;-1.00;105401;1255;1004725;-79
2023/05/25 03:37:25;;;;;;;48.50;30.60;;;;;;;-128.00;-1.00;-1.00;105575;1253;1004298;-79
2023/05/25 03:39:52;;;;;;;49.70;28.80;;;;;;;-128.00;-1.00;-1.00;105613;1253;1003588;-79
2023/05/25 03:42:18;;;;;;;51.80;32.40;;;;;;;-128.00;-1.00;-1.00;105548;1255;1004166;-77
2023/05/25 03:44:45;;;;;;;51.20;31.10;;;;;;;-128.00;-1.00;-1.00;105552;1255;1003685;-78
2023/05/25 03:47:12;;;;;;;50.80;31.20;;;;;;;-128.00;-1.00;-1.00;105505;1254;1005037;-79
2023/05/25 03:49:38;;;;;;;58.00;31.30;;;;;;;-128.00;-1.00;-1.00;105562;1254;1004481;-77
2023/05/25 03:52:05;;;;;;;47.60;30.30;;;;;;;-128.00;-1.00;-1.00;105463;1254;1004134;-77
2023/05/25 03:54:31;;;;;;;47.10;30.10;;;;;;;-128.00;-1.00;-1.00;105485;1253;1004021;-77
2023/05/25 03:56:58;;;;;;;54.80;32.10;;;;;;;-128.00;-1.00;-1.00;105486;1252;1003232;-79
2023/05/25 03:59:25;;;;;;;48.20;30.00;;;;;;;-128.00;-1.00;-1.00;105463;1252;1004835;-79
2023/05/25 04:01:51;;;;;;;46.10;29.20;;;;;;;-128.00;-1.00;-1.00;105441;1254;1003730;-79
2023/05/25 04:04:17;;;;;;;49.40;30.80;;;;;;;-128.00;-1.00;-1.00;105438;1253;1004158;-79
2023/05/25 04:06:48;;;;;;;63.30;31.50;;;;;;;-128.00;-1.00;-1.00;105448;1254;1003614;-76
2023/05/25 04:09:15;;;;;;;50.50;29.50;;;;;;;-128.00;-1.00;-1.00;105513;1254;1047578;-77
2023/05/25 04:11:42;;;;;;;40.30;27.30;;;;;;;-128.00;-1.00;-1.00;105435;1255;1003565;-77
2023/05/25 04:14:08;;;;;;;55.90;30.70;;;;;;;-128.00;-1.00;-1.00;105497;1253;1004751;-77
2023/05/25 04:16:35;;;;;;;46.90;29.90;;;;;;;-128.00;-1.00;-1.00;105408;1254;1004760;-79
2023/05/25 04:19:02;;;;;;;50.40;29.00;;;;;;;-128.00;-1.00;-1.00;105419;1253;1003972;-77
2023/05/25 04:21:28;;;;;;;44.70;29.20;;;;;;;-128.00;-1.00;-1.00;105487;1254;1003780;-77
2023/05/25 04:23:54;;;;;;;48.20;29.70;;;;;;;-128.00;-1.00;-1.00;105470;1253;1003663;-78
2023/05/25 04:26:21;;;;;;;50.40;32.10;;;;;;;-128.00;-1.00;-1.00;105470;1253;1004518;-76
2023/05/25 04:28:47;;;;;;;61.40;38.10;;;;;;;-128.00;-1.00;-1.00;105441;1253;1004142;-80
2023/05/25 04:31:14;;;;;;;65.70;42.80;;;;;;;-128.00;-1.00;-1.00;105485;1253;1004816;-77
2023/05/25 04:33:40;;;;;;;95.10;58.50;;;;;;;-128.00;-1.00;-1.00;105522;1253;1004178;-77
2023/05/25 04:36:09;;;;;;;48.10;31.10;;;;;;;-128.00;-1.00;-1.00;105534;1253;1005294;-77
2023/05/25 04:38:36;;;;;;;36.30;24.60;;;;;;;-128.00;-1.00;-1.00;105381;1253;1057880;-77
2023/05/25 04:41:02;;;;;;;37.90;26.20;;;;;;;-128.00;-1.00;-1.00;105249;1254;1003417;-77
2023/05/25 04:43:29;;;;;;;47.70;28.70;;;;;;;-128.00;-1.00;-1.00;105521;1253;1005003;-79
2023/05/25 04:45:56;;;;;;;45.00;27.00;;;;;;;-128.00;-1.00;-1.00;105580;1253;1004726;-79
2023/05/25 04:48:23;;;;;;;39.50;27.30;;;;;;;-128.00;-1.00;-1.00;105380;1254;1004754;-79
2023/05/25 04:50:51;;;;;;;35.60;25.00;;;;;;;-128.00;-1.00;-1.00;105473;1254;1004603;-77
2023/05/25 04:53:18;;;;;;;37.90;22.50;;;;;;;-128.00;-1.00;-1.00;105328;1252;1004788;-79
2023/05/25 04:55:44;;;;;;;36.80;23.50;;;;;;;-128.00;-1.00;-1.00;105446;1252;1003926;-79
2023/05/25 04:58:12;;;;;;;32.50;22.10;;;;;;;-128.00;-1.00;-1.00;105423;1254;1003626;-80
2023/05/25 05:00:39;;;;;;;29.90;20.60;;;;;;;-128.00;-1.00;-1.00;105465;1253;1004601;-77
2023/05/25 05:03:05;;;;;;;36.80;21.30;;;;;;;-128.00;-1.00;-1.00;105494;1254;1004072;-79
2023/05/25 05:05:32;;;;;;;37.30;24.00;;;;;;;-128.00;-1.00;-1.00;105456;1253;1003778;-77
2023/05/25 05:08:00;;;;;;;32.90;19.50;;;;;;;-128.00;-1.00;-1.00;105470;1256;1004287;-79
2023/05/25 05:10:26;;;;;;;32.80;20.80;;;;;;;-128.00;-1.00;-1.00;105469;1254;1003382;-77
2023/05/25 05:12:52;;;;;;;28.50;19.60;;;;;;;-128.00;-1.00;-1.00;105409;1254;1004362;-77
2023/05/25 05:15:19;;;;;;;26.90;18.40;;;;;;;-128.00;-1.00;-1.00;105449;1256;1004492;-79
2023/05/25 05:17:45;;;;;;;30.10;19.20;;;;;;;-128.00;-1.00;-1.00;105326;1254;1004347;-78
2023/05/25 05:20:12;;;;;;;46.70;20.50;;;;;;;-128.00;-1.00;-1.00;105420;1255;1004744;-77
2023/05/25 05:22:38;;;;;;;27.50;18.20;;;;;;;-128.00;-1.00;-1.00;105342;1253;1004094;-79
2023/05/25 05:25:06;;;;;;;30.10;18.10;;;;;;;-128.00;-1.00;-1.00;105402;1254;1004575;-77
2023/05/25 05:27:33;;;;;;;32.70;20.90;;;;;;;-128.00;-1.00;-1.00;105463;1254;1003905;-79
2023/05/25 05:29:59;;;;;;;27.70;19.90;;;;;;;-128.00;-1.00;-1.00;105458;1252;1004713;-77
2023/05/25 05:32:26;;;;;;;29.00;18.30;;;;;;;-128.00;-1.00;-1.00;105472;1254;1005708;-77
2023/05/25 05:34:52;;;;;;;30.00;18.90;;;;;;;-128.00;-1.00;-1.00;105444;1254;1003847;-79
2023/05/25 05:37:18;;;;;;;29.90;19.20;;;;;;;-128.00;-1.00;-1.00;105425;1253;1004717;-76
2023/05/25 05:39:45;;;;;;;32.80;19.90;;;;;;;-128.00;-1.00;-1.00;105486;1254;1004435;-79
2023/05/25 05:42:11;;;;;;;26.80;18.80;;;;;;;-128.00;-1.00;-1.00;105452;1253;1003896;-79
2023/05/25 05:44:38;;;;;;;35.40;20.40;;;;;;;-128.00;-1.00;-1.00;105458;1253;1006051;-77
2023/05/25 05:47:04;;;;;;;31.60;19.50;;;;;;;-128.00;-1.00;-1.00;105425;1254;1003540;-77
2023/05/25 05:49:31;;;;;;;29.80;19.80;;;;;;;-128.00;-1.00;-1.00;105492;1253;1004211;-77
2023/05/25 05:51:58;;;;;;;26.30;18.60;;;;;;;-128.00;-1.00;-1.00;105490;1254;1004735;-77
2023/05/25 05:54:26;;;;;;;31.20;19.90;;;;;;;-128.00;-1.00;-1.00;105451;1254;1004524;-77
2023/05/25 05:56:52;;;;;;;31.00;20.30;;;;;;;-128.00;-1.00;-1.00;105423;1254;1004227;-77
2023/05/25 05:59:20;;;;;;;33.10;23.90;;;;;;;-128.00;-1.00;-1.00;105407;1256;1004419;-79
2023/05/25 06:01:46;;;;;;;46.50;21.50;;;;;;;-128.00;-1.00;-1.00;105430;1253;1003992;-77
2023/05/25 06:04:14;;;;;;;30.80;20.50;;;;;;;-128.00;-1.00;-1.00;105423;1256;1004598;-77
2023/05/25 06:06:41;;;;;;;38.80;21.00;;;;;;;-128.00;-1.00;-1.00;105384;1254;1005926;-77
2023/05/25 06:09:08;;;;;;;29.30;20.40;;;;;;;-128.00;-1.00;-1.00;105352;1254;1003488;-79
2023/05/25 06:11:35;;;;;;;30.40;21.80;;;;;;;-128.00;-1.00;-1.00;105399;1253;1003783;-77
2023/05/25 06:14:02;;;;;;;39.80;25.80;;;;;;;-128.00;-1.00;-1.00;105404;1254;1004737;-77
2023/05/25 06:16:29;;;;;;;30.20;22.50;;;;;;;-128.00;-1.00;-1.00;105415;1253;1005911;-79
2023/05/25 06:18:55;;;;;;;32.30;23.10;;;;;;;-128.00;-1.00;-1.00;105403;1254;1004192;-79
2023/05/25 06:21:22;;;;;;;35.20;22.50;;;;;;;-128.00;-1.00;-1.00;105365;1254;1003930;-79
2023/05/25 06:23:48;;;;;;;34.20;22.60;;;;;;;-128.00;-1.00;-1.00;105329;1254;1003569;-76
2023/05/25 06:26:15;;;;;;;32.90;22.00;;;;;;;-128.00;-1.00;-1.00;105392;1254;1005258;-79
2023/05/25 06:28:41;;;;;;;36.80;24.00;;;;;;;-128.00;-1.00;-1.00;105320;1254;1004370;-76
2023/05/25 06:31:08;;;;;;;33.80;21.50;;;;;;;-128.00;-1.00;-1.00;105376;1257;1004742;-76
2023/05/25 06:33:34;;;;;;;34.20;23.60;;;;;;;-128.00;-1.00;-1.00;105362;1256;1004316;-79
2023/05/25 06:36:00;;;;;;;36.10;23.20;;;;;;;-128.00;-1.00;-1.00;105338;1254;1003865;-77
2023/05/25 06:38:27;;;;;;;38.40;24.60;;;;;;;-128.00;-1.00;-1.00;105314;1254;1003998;-77
2023/05/25 06:40:53;;;;;;;38.20;23.60;;;;;;;-128.00;-1.00;-1.00;105400;1254;1004022;-78
2023/05/25 06:43:20;;;;;;;35.10;24.90;;;;;;;-128.00;-1.00;-1.00;105242;1254;1004497;-77
2023/05/25 06:45:46;;;;;;;35.90;23.60;;;;;;;-128.00;-1.00;-1.00;105355;1254;1004972;-77
2023/05/25 06:48:13;;;;;;;32.90;22.50;;;;;;;-128.00;-1.00;-1.00;105360;1254;1004716;-79
2023/05/25 06:50:39;;;;;;;33.20;23.10;;;;;;;-128.00;-1.00;-1.00;105351;1254;1004076;-79
2023/05/25 06:53:06;;;;;;;34.90;21.90;;;;;;;-128.00;-1.00;-1.00;105391;1254;1004718;-77
2023/05/25 06:55:32;;;;;;;35.60;24.30;;;;;;;-128.00;-1.00;-1.00;105336;1253;1004459;-79
2023/05/25 06:57:58;;;;;;;35.70;23.40;;;;;;;-128.00;-1.00;-1.00;105309;1254;1004061;-79
2023/05/25 07:00:25;;;;;;;34.60;23.90;;;;;;;-128.00;-1.00;-1.00;105372;1254;1004479;-79
2023/05/25 07:02:51;;;;;;;35.20;22.80;;;;;;;-128.00;-1.00;-1.00;105442;1253;1057600;-77
2023/05/25 07:05:18;;;;;;;34.00;23.20;;;;;;;-128.00;-1.00;-1.00;105335;1254;1005259;-79
2023/05/25 07:07:44;;;;;;;31.70;21.20;;;;;;;-128.00;-1.00;-1.00;105381;1254;1003435;-79
2023/05/25 07:10:10;;;;;;;30.60;21.40;;;;;;;-128.00;-1.00;-1.00;105413;1254;1004473;-79
2023/05/25 07:12:37;;;;;;;31.30;22.90;;;;;;;-128.00;-1.00;-1.00;105462;1254;1004298;-77
2023/05/25 07:15:04;;;;;;;32.90;20.70;;;;;;;-128.00;-1.00;-1.00;105408;1253;1005241;-79
2023/05/25 07:17:31;;;;;;;30.80;20.70;;;;;;;-128.00;-1.00;-1.00;105419;1254;1004112;-79
2023/05/25 07:19:57;;;;;;;41.20;23.80;;;;;;;-128.00;-1.00;-1.00;105424;1254;1004346;-77
2023/05/25 07:22:24;;;;;;;33.20;19.40;;;;;;;-128.00;-1.00;-1.00;105378;1253;1004489;-79
2023/05/25 07:24:51;;;;;;;28.30;19.10;;;;;;;-128.00;-1.00;-1.00;105365;1253;1004950;-77
2023/05/25 07:27:18;;;;;;;28.40;19.10;;;;;;;-128.00;-1.00;-1.00;105295;1253;1004854;-79
2023/05/25 07:29:44;;;;;;;24.20;17.50;;;;;;;-128.00;-1.00;-1.00;105286;1253;1004073;-79
2023/05/25 07:32:11;;;;;;;25.00;17.60;;;;;;;-128.00;-1.00;-1.00;105456;1252;1004634;-79
2023/05/25 07:34:38;;;;;;;24.70;17.70;;;;;;;-128.00;-1.00;-1.00;105465;1253;1004372;-77
2023/05/25 07:37:05;;;;;;;24.20;16.60;;;;;;;-128.00;-1.00;-1.00;105449;1254;1004683;-79
2023/05/25 07:39:31;;;;;;;24.20;17.40;;;;;;;-128.00;-1.00;-1.00;105473;1254;1004285;-79
2023/05/25 07:41:58;;;;;;;23.30;16.20;;;;;;;-128.00;-1.00;-1.00;105357;1254;1004419;-79
2023/05/25 07:44:24;;;;;;;28.70;19.30;;;;;;;-128.00;-1.00;-1.00;105412;1253;1004709;-79
2023/05/25 07:46:50;;;;;;;25.60;17.10;;;;;;;-128.00;-1.00;-1.00;105441;1254;1004903;-77
2023/05/25 07:49:17;;;;;;;26.30;17.80;;;;;;;-128.00;-1.00;-1.00;105379;1254;1005328;-79
2023/05/25 07:51:44;;;;;;;26.60;19.00;;;;;;;-128.00;-1.00;-1.00;105293;1253;1005382;-80
2023/05/25 07:54:10;;;;;;;25.70;17.50;;;;;;;-128.00;-1.00;-1.00;105440;1253;1003806;-77
2023/05/25 07:56:37;;;;;;;21.60;16.40;;;;;;;-128.00;-1.00;-1.00;105433;1254;1005018;-79
2023/05/25 07:59:03;;;;;;;39.70;28.60;;;;;;;-128.00;-1.00;-1.00;105356;1253;1004950;-77
2023/05/25 08:01:30;;;;;;;30.60;24.00;;;;;;;-128.00;-1.00;-1.00;105291;1254;1004679;-79
2023/05/25 08:03:56;;;;;;;27.30;19.00;;;;;;;-128.00;-1.00;-1.00;105390;1252;1004748;-77
2023/05/25 08:06:23;;;;;;;26.50;18.40;;;;;;;-128.00;-1.00;-1.00;105292;1254;1005175;-77
2023/05/25 08:08:49;;;;;;;31.80;20.30;;;;;;;-128.00;-1.00;-1.00;105444;1254;1004849;-77
2023/05/25 08:11:16;;;;;;;28.20;18.80;;;;;;;-128.00;-1.00;-1.00;105473;1253;1004410;-79
2023/05/25 08:13:42;;;;;;;25.30;18.50;;;;;;;-128.00;-1.00;-1.00;105419;1254;1004228;-77
2023/05/25 08:16:09;;;;;;;28.30;18.70;;;;;;;-128.00;-1.00;-1.00;105364;1254;1003878;-79
2023/05/25 08:18:35;;;;;;;28.20;20.40;;;;;;;-128.00;-1.00;-1.00;105454;1253;1005041;-77
2023/05/25 08:21:02;;;;;;;27.70;20.00;;;;;;;-128.00;-1.00;-1.00;105386;1253;1005132;-77
2023/05/25 08:23:28;;;;;;;27.90;18.50;;;;;;;-128.00;-1.00;-1.00;105429;1253;1003706;-79
2023/05/25 08:25:55;;;;;;;24.90;18.60;;;;;;;-128.00;-1.00;-1.00;105360;1254;1005745;-76
2023/05/25 08:28:21;;;;;;;25.30;19.50;;;;;;;-128.00;-1.00;-1.00;105402;1252;1003860;-77
2023/05/25 08:30:47;;;;;;;26.80;18.60;;;;;;;-128.00;-1.00;-1.00;105343;1254;1003372;-79
2023/05/25 08:33:14;;;;;;;32.10;19.40;;;;;;;-128.00;-1.00;-1.00;105413;1253;1005005;-76
2023/05/25 08:35:41;;;;;;;26.00;19.20;;;;;;;-128.00;-1.00;-1.00;105407;1254;1004368;-77
2023/05/25 08:38:08;;;;;;;24.90;18.30;;;;;;;-128.00;-1.00;-1.00;105392;1253;1003681;-78
2023/05/25 08:40:34;;;;;;;27.10;19.50;;;;;;;-128.00;-1.00;-1.00;105308;1254;1005682;-76
2023/05/25 08:43:01;;;;;;;27.80;17.90;;;;;;;-128.00;-1.00;-1.00;105188;1254;1004189;-79
2023/05/25 08:45:27;;;;;;;30.40;20.20;;;;;;;-128.00;-1.00;-1.00;105298;1254;1004085;-80
2023/05/25 08:47:57;;;;;;;27.70;20.10;;;;;;;-128.00;-1.00;-1.00;105446;1253;1003689;-79
2023/05/25 08:50:25;;;;;;;29.50;19.90;;;;;;;-128.00;-1.00;-1.00;105235;1254;1062872;-77
2023/05/25 08:52:52;;;;;;;27.30;18.30;;;;;;;-128.00;-1.00;-1.00;105368;1254;1004601;-79
2023/05/25 08:55:18;;;;;;;29.20;21.60;;;;;;;-128.00;-1.00;-1.00;105407;1253;1004516;-82
2023/05/25 08:57:48;;;;;;;32.50;20.40;;;;;;;-128.00;-1.00;-1.00;105369;1253;1003699;-79
2023/05/25 09:00:15;;;;;;;28.00;19.00;;;;;;;-128.00;-1.00;-1.00;105332;1254;1046950;-80
2023/05/25 09:02:59;;;;;;;26.10;19.80;;;;;;;-128.00;-1.00;-1.00;105359;1254;1004464;-80
2023/05/25 09:05:26;;;;;;;28.00;18.80;;;;;;;-128.00;-1.00;-1.00;105285;1253;1059734;-79
2023/05/25 09:07:53;;;;;;;27.80;19.00;;;;;;;-128.00;-1.00;-1.00;105547;1253;1004428;-77
2023/05/25 09:10:20;;;;;;;23.10;19.00;;;;;;;-128.00;-1.00;-1.00;105396;1253;1005027;-79
2023/05/25 09:12:47;;;;;;;23.50;18.20;;;;;;;-128.00;-1.00;-1.00;105309;1253;1005444;-77
2023/05/25 09:15:14;;;;;;;55.90;42.10;;;;;;;-128.00;-1.00;-1.00;105397;1252;1003440;-77
2023/05/25 09:17:40;;;;;;;38.00;27.50;;;;;;;-128.00;-1.00;-1.00;105347;1253;1004311;-80
2023/05/25 09:20:09;;;;;;;45.00;30.40;;;;;;;-128.00;-1.00;-1.00;105383;1254;1006223;-77
2023/05/25 09:22:36;;;;;;;38.60;26.30;;;;;;;-128.00;-1.00;-1.00;105392;1253;1048730;-79
2023/05/25 09:25:07;;;;;;;29.80;21.80;;;;;;;-128.00;-1.00;-1.00;105430;1253;1004487;-77
2023/05/25 09:27:36;;;;;;;37.70;25.50;;;;;;;-128.00;-1.00;-1.00;105455;1253;1062737;-80
2023/05/25 09:30:04;;;;;;;53.30;34.20;;;;;;;-128.00;-1.00;-1.00;105357;1253;1058894;-77
2023/05/25 09:32:30;;;;;;;28.00;19.90;;;;;;;-128.00;-1.00;-1.00;104707;1253;1004486;-79
2023/05/25 09:35:13;;;;;;;23.30;18.70;;;;;;;-128.00;-1.00;-1.00;104618;1254;1004727;-80
2023/05/25 09:37:40;;;;;;;29.30;20.10;;;;;;;-128.00;-1.00;-1.00;105408;1253;1047113;-77
2023/05/25 09:40:07;;;;;;;30.70;19.30;;;;;;;-128.00;-1.00;-1.00;105359;1252;1005256;-80
2023/05/25 09:42:34;;;;;;;29.30;20.70;;;;;;;-128.00;-1.00;-1.00;105226;1253;1004911;-77
2023/05/25 09:45:01;;;;;;;29.80;20.90;;;;;;;-128.00;-1.00;-1.00;105278;1254;1003950;-80
2023/05/25 09:47:28;;;;;;;30.20;21.90;;;;;;;-128.00;-1.00;-1.00;105391;1253;1004397;-78
2023/05/25 09:49:55;;;;;;;31.60;22.60;;;;;;;-128.00;-1.00;-1.00;105405;1252;1004413;-77
2023/05/25 09:52:21;;;;;;;31.20;21.20;;;;;;;-128.00;-1.00;-1.00;105438;1253;1004756;-77
2023/05/25 09:54:48;;;;;;;30.80;22.70;;;;;;;-128.00;-1.00;-1.00;105462;1254;1005349;-77
2023/05/25 09:57:15;;;;;;;31.50;21.30;;;;;;;-128.00;-1.00;-1.00;105325;1253;1004632;-80
2023/05/25 09:59:42;;;;;;;28.90;20.40;;;;;;;-128.00;-1.00;-1.00;105424;1253;1004893;-80
2023/05/25 10:02:08;;;;;;;34.80;21.70;;;;;;;-128.00;-1.00;-1.00;105302;1253;1004494;-77
2023/05/25 10:04:35;;;;;;;33.10;21.20;;;;;;;-128.00;-1.00;-1.00;105455;1254;1004279;-76
2023/05/25 10:07:02;;;;;;;26.00;19.00;;;;;;;-128.00;-1.00;-1.00;105455;1252;1004700;-77
2023/05/25 10:09:29;;;;;;;28.10;20.40;;;;;;;-128.00;-1.00;-1.00;105354;1252;1004446;-77
2023/05/25 10:11:56;;;;;;;27.20;20.00;;;;;;;-128.00;-1.00;-1.00;105454;1253;1004911;-77
2023/05/25 10:14:25;;;;;;;29.80;21.60;;;;;;;-128.00;-1.00;-1.00;105272;1253;1004381;-79
2023/05/25 10:16:53;;;;;;;27.70;20.10;;;;;;;-128.00;-1.00;-1.00;105449;1252;1063034;-79
2023/05/25 10:19:24;;;;;;;28.30;18.60;;;;;;;-128.00;-1.00;-1.00;105442;1254;1004069;-77
2023/05/25 10:21:58;;;;;;;34.30;22.90;;;;;;;-128.00;-1.00;-1.00;105451;1253;1060117;-79
2023/05/25 10:24:39;;;;;;;29.50;21.20;;;;;;;-128.00;-1.00;-1.00;105332;1253;1047444;-79
2023/05/25 10:27:06;;;;;;;32.50;19.60;;;;;;;-128.00;-1.00;-1.00;105434;1252;1046871;-79
2023/05/25 10:29:32;;;;;;;31.00;21.60;;;;;;;-128.00;-1.00;-1.00;105324;1253;1005168;-79
2023/05/25 10:31:59;;;;;;;28.90;20.90;;;;;;;-128.00;-1.00;-1.00;105436;1253;1004817;-79
2023/05/25 10:34:25;;;;;;;29.80;20.80;;;;;;;-128.00;-1.00;-1.00;105324;1253;1004318;-79
2023/05/25 10:36:52;;;;;;;34.70;20.90;;;;;;;-128.00;-1.00;-1.00;105252;1254;1004812;-79
2023/05/25 10:39:19;;;;;;;28.70;21.10;;;;;;;-128.00;-1.00;-1.00;105284;1254;1005510;-79
2023/05/25 10:41:45;;;;;;;28.40;19.30;;;;;;;-128.00;-1.00;-1.00;105274;1254;1004719;-77
2023/05/25 10:44:12;;;;;;;32.10;20.60;;;;;;;-128.00;-1.00;-1.00;105530;1254;1004541;-77
2023/05/25 10:46:38;;;;;;;27.20;18.80;;;;;;;-128.00;-1.00;-1.00;105391;1252;1004390;-77
2023/05/25 10:49:04;;;;;;;31.00;20.20;;;;;;;-128.00;-1.00;-1.00;105416;1253;1004885;-77
2023/05/25 10:51:37;;;;;;;25.90;19.90;;;;;;;-128.00;-1.00;-1.00;105401;1253;1006712;-79
2023/05/25 10:54:04;;;;;;;25.70;19.90;;;;;;;-128.00;-1.00;-1.00;105488;1254;1063278;-79
2023/05/25 10:56:30;;;;;;;27.70;20.20;;;;;;;-128.00;-1.00;-1.00;105331;1252;1003781;-79
2023/05/25 10:58:57;;;;;;;29.80;21.20;;;;;;;-128.00;-1.00;-1.00;105428;1253;1004801;-77
2023/05/25 11:01:23;;;;;;;32.70;20.20;;;;;;;-128.00;-1.00;-1.00;105414;1253;1004455;-79
2023/05/25 11:03:54;;;;;;;30.30;21.50;;;;;;;-128.00;-1.00;-1.00;105462;1253;1004686;-77